createdAt,value
2019-04-20T00:01:08.711Z,0
2019-04-20T00:02:20.899Z,0
2019-04-20T00:03:33.098Z,0
2019-04-20T00:04:45.291Z,0
2019-04-20T00:05:57.485Z,0
2019-04-20T00:07:09.680Z,0
2019-04-20T00:08:21.877Z,0
2019-04-20T00:09:34.070Z,0
2019-04-20T00:10:46.267Z,0
2019-04-20T00:11:58.452Z,0
2019-04-20T00:13:10.658Z,0
2019-04-20T00:14:22.851Z,0
2019-04-20T00:15:35.040Z,0
2019-04-20T00:16:47.024Z,0
2019-04-20T00:17:59.435Z,0
2019-04-20T00:19:11.632Z,0
2019-04-20T00:20:23.818Z,0
2019-04-20T00:22:48.213Z,0
2019-04-20T00:24:00.406Z,0
2019-04-20T00:25:12.602Z,0
2019-04-20T00:26:24.080Z,0
2019-04-20T00:27:36.989Z,0
2019-04-20T00:28:49.204Z,0
2019-04-20T00:30:01.388Z,0
2019-04-20T00:31:13.581Z,0
2019-04-20T00:33:37.096Z,0
2019-04-20T00:34:50.167Z,0
2019-04-20T00:36:02.362Z,0
2019-04-20T00:37:14.055Z,0
2019-04-20T00:38:26.753Z,0
2019-04-20T00:39:38.094Z,0
2019-04-20T00:40:51.150Z,0
2019-04-20T00:42:03.033Z,0
2019-04-20T00:43:15.547Z,0
2019-04-20T00:44:27.725Z,0
2019-04-20T00:45:39.924Z,0
2019-04-20T00:48:04.313Z,0
2019-04-20T00:49:16.051Z,0
2019-04-20T00:50:28.704Z,0
2019-04-20T00:52:53.097Z,0
2019-04-20T00:54:05.325Z,0
2019-04-20T00:55:17.486Z,0
2019-04-20T00:56:29.068Z,0
2019-04-20T00:57:41.879Z,0
2019-04-20T00:58:54.076Z,0
2019-04-20T01:00:06.266Z,0
2019-04-20T01:01:18.462Z,0
2019-04-20T01:02:30.658Z,0
2019-04-20T01:03:42.085Z,0
2019-04-20T01:04:55.048Z,0
2019-04-20T01:06:07.239Z,0
2019-04-20T01:07:19.444Z,0
2019-04-20T01:08:31.634Z,0
2019-04-20T01:09:43.824Z,0
2019-04-20T01:10:56.025Z,0
2019-04-20T01:12:08.022Z,0
2019-04-20T01:13:20.408Z,0
2019-04-20T01:14:32.617Z,0
2019-04-20T01:15:44.805Z,0
2019-04-20T01:16:57.000Z,0
2019-04-20T01:19:21.390Z,0
2019-04-20T01:20:33.585Z,0
2019-04-20T01:21:45.784Z,0
2019-04-20T01:22:57.981Z,0
2019-04-20T01:24:10.212Z,0
2019-04-20T01:25:22.375Z,0
2019-04-20T01:26:34.558Z,0
2019-04-20T01:27:46.755Z,0
2019-04-20T01:28:58.095Z,0
2019-04-20T01:30:11.152Z,0
2019-04-20T01:31:23.347Z,0
2019-04-20T01:32:35.054Z,0
2019-04-20T01:33:47.735Z,0
2019-04-20T01:34:59.948Z,0
2019-04-20T01:36:12.129Z,0
2019-04-20T01:37:24.324Z,0
2019-04-20T01:38:36.522Z,0
2019-04-20T01:39:48.712Z,0
2019-04-20T01:41:00.902Z,0
2019-04-20T01:42:13.106Z,0
2019-04-20T01:43:25.295Z,0
2019-04-20T01:44:37.497Z,0
2019-04-20T01:45:49.692Z,0
2019-04-20T01:47:01.909Z,0
2019-04-20T01:48:14.084Z,0
2019-04-20T01:49:26.279Z,0
2019-04-20T01:50:38.476Z,0
2019-04-20T01:51:50.675Z,0
2019-04-20T01:53:02.862Z,0
2019-04-20T01:54:15.056Z,0
2019-04-20T01:55:28.349Z,0
2019-04-20T01:56:39.452Z,0
2019-04-20T01:57:51.644Z,0
2019-04-20T01:59:03.840Z,0
2019-04-20T02:00:16.035Z,0
2019-04-20T02:01:28.236Z,0
2019-04-20T02:02:40.431Z,0
2019-04-20T02:03:52.622Z,0
2019-04-20T02:05:04.825Z,0
2019-04-20T02:06:17.001Z,0
2019-04-20T02:07:29.212Z,0
2019-04-20T02:08:41.431Z,0
2019-04-20T02:09:53.601Z,0
2019-04-20T02:11:05.794Z,0
2019-04-20T02:12:17.990Z,0
2019-04-20T02:13:30.182Z,0
2019-04-20T02:14:42.425Z,0
2019-04-20T02:15:54.058Z,0
2019-04-20T02:17:06.000Z,0
2019-04-20T02:18:18.978Z,0
2019-04-20T02:19:31.164Z,0
2019-04-20T02:20:43.360Z,0
2019-04-20T02:24:19.950Z,0
2019-04-20T02:25:32.157Z,0
2019-04-20T02:26:44.345Z,0
2019-04-20T02:27:56.532Z,0
2019-04-20T02:29:08.734Z,0
2019-04-20T02:30:20.928Z,0
2019-04-20T02:31:33.012Z,0
2019-04-20T02:32:45.326Z,0
2019-04-20T02:33:57.513Z,0
2019-04-20T02:35:09.722Z,0
2019-04-20T02:36:21.911Z,0
2019-04-20T02:37:34.103Z,0
2019-04-20T02:38:46.299Z,0
2019-04-20T02:39:58.545Z,0
2019-04-20T02:41:10.000Z,0
2019-04-20T02:42:22.892Z,0
2019-04-20T02:43:35.008Z,0
2019-04-20T02:44:47.028Z,0
2019-04-20T02:45:59.475Z,0
2019-04-20T02:47:11.674Z,0
2019-04-20T02:48:23.862Z,0
2019-04-20T02:49:36.068Z,0
2019-04-20T02:50:48.261Z,0
2019-04-20T02:52:00.448Z,0
2019-04-20T02:53:12.655Z,0
2019-04-20T02:54:24.847Z,0
2019-04-20T02:55:37.037Z,0
2019-04-20T02:56:49.232Z,0
2019-04-20T02:59:13.625Z,0
2019-04-20T03:00:25.836Z,0
2019-04-20T03:01:38.018Z,0
2019-04-20T03:02:50.000Z,0
2019-04-20T03:04:02.428Z,0
2019-04-20T03:05:14.608Z,0
2019-04-20T03:07:39.004Z,0
2019-04-20T03:08:51.196Z,0
2019-04-20T03:10:03.391Z,0
2019-04-20T03:11:15.587Z,0
2019-04-20T03:12:27.078Z,0
2019-04-20T03:13:39.974Z,0
2019-04-20T03:14:52.169Z,0
2019-04-20T03:16:04.369Z,0
2019-04-20T03:17:16.561Z,0
2019-04-20T03:18:28.075Z,0
2019-04-20T03:19:40.966Z,0
2019-04-20T03:20:53.153Z,0
2019-04-20T03:23:17.537Z,0
2019-04-20T03:24:29.073Z,0
2019-04-20T03:25:41.093Z,0
2019-04-20T03:26:54.131Z,0
2019-04-20T03:28:06.323Z,0
2019-04-20T03:29:18.547Z,0
2019-04-20T03:30:30.000Z,0
2019-04-20T03:31:42.909Z,0
2019-04-20T03:32:55.116Z,0
2019-04-20T03:34:07.331Z,0
2019-04-20T03:35:19.507Z,0
2019-04-20T03:36:31.692Z,0
2019-04-20T03:37:43.896Z,0
2019-04-20T03:38:56.084Z,0
2019-04-20T03:40:08.291Z,0
2019-04-20T03:41:20.486Z,0
2019-04-20T03:42:32.680Z,0
2019-04-20T03:43:44.876Z,0
2019-04-20T03:44:57.064Z,0
2019-04-20T03:47:21.458Z,0
2019-04-20T03:48:33.650Z,0
2019-04-20T03:49:45.851Z,0
2019-04-20T03:50:58.046Z,0
2019-04-20T03:52:10.239Z,0
2019-04-20T03:53:22.438Z,0
2019-04-20T03:54:34.636Z,0
2019-04-20T03:55:46.892Z,0
2019-04-20T03:56:59.023Z,0
2019-04-20T03:58:11.218Z,0
2019-04-20T03:59:23.411Z,0
2019-04-20T04:00:35.000Z,0
2019-04-20T04:01:47.807Z,0
2019-04-20T04:03:00.003Z,0
2019-04-20T04:04:12.020Z,0
2019-04-20T04:05:24.399Z,0
2019-04-20T04:06:36.713Z,0
2019-04-20T04:07:48.785Z,0
2019-04-20T04:09:00.984Z,0
2019-04-20T04:10:13.177Z,0
2019-04-20T04:11:25.374Z,0
2019-04-20T04:12:37.564Z,0
2019-04-20T04:13:49.767Z,0
2019-04-20T04:16:14.158Z,0
2019-04-20T04:17:26.385Z,0
2019-04-20T04:18:38.546Z,0
2019-04-20T04:19:50.746Z,0
2019-04-20T04:21:02.938Z,0
2019-04-20T04:22:15.128Z,0
2019-04-20T04:23:27.320Z,0
2019-04-20T04:24:39.521Z,0
2019-04-20T04:27:03.922Z,0
2019-04-20T04:28:16.110Z,0
2019-04-20T04:29:28.309Z,0
2019-04-20T04:30:40.566Z,0
2019-04-20T04:31:52.725Z,0
2019-04-20T04:33:04.923Z,0
2019-04-20T04:34:17.115Z,0
2019-04-20T04:35:29.309Z,0
2019-04-20T04:36:41.000Z,0
2019-04-20T04:37:53.696Z,0
2019-04-20T04:39:05.090Z,0
2019-04-20T04:40:18.097Z,0
2019-04-20T04:41:30.310Z,0
2019-04-20T04:42:42.484Z,0
2019-04-20T04:43:54.689Z,0
2019-04-20T04:45:06.088Z,0
2019-04-20T04:46:19.065Z,0
2019-04-20T04:47:31.267Z,0
2019-04-20T04:48:43.045Z,0
2019-04-20T04:49:55.682Z,0
2019-04-20T04:51:07.851Z,0
2019-04-20T04:52:20.050Z,0
2019-04-20T04:53:32.242Z,0
2019-04-20T04:54:44.440Z,0
2019-04-20T04:55:56.633Z,0
2019-04-20T04:57:08.831Z,0
2019-04-20T04:58:21.032Z,0
2019-04-20T04:59:33.222Z,0
2019-04-20T05:00:45.414Z,0
2019-04-20T05:01:57.607Z,0
2019-04-20T05:03:09.806Z,0
2019-04-20T05:04:22.000Z,0
2019-04-20T05:05:34.200Z,0
2019-04-20T05:06:46.400Z,0
2019-04-20T05:07:58.605Z,0
2019-04-20T05:09:10.793Z,0
2019-04-20T05:11:35.173Z,0
2019-04-20T05:12:47.372Z,0
2019-04-20T05:13:59.572Z,0
2019-04-20T05:15:11.000Z,0
2019-04-20T05:16:23.955Z,0
2019-04-20T05:17:36.152Z,0
2019-04-20T05:18:48.363Z,0
2019-04-20T05:20:00.544Z,0
2019-04-20T05:22:24.938Z,0
2019-04-20T05:23:37.147Z,0
2019-04-20T05:24:49.333Z,0
2019-04-20T05:26:01.569Z,0
2019-04-20T05:27:13.715Z,0
2019-04-20T05:28:25.000Z,0
2019-04-20T05:29:38.111Z,0
2019-04-20T05:30:50.332Z,0
2019-04-20T05:32:02.050Z,0
2019-04-20T05:33:14.821Z,0
2019-04-20T05:34:26.889Z,0
2019-04-20T05:35:39.000Z,0
2019-04-20T05:36:51.284Z,0
2019-04-20T05:38:03.476Z,0
2019-04-20T05:39:15.672Z,0
2019-04-20T05:40:27.885Z,0
2019-04-20T05:41:40.062Z,0
2019-04-20T05:42:52.256Z,0
2019-04-20T05:44:04.046Z,0
2019-04-20T05:45:16.651Z,0
2019-04-20T05:46:28.848Z,0
2019-04-20T05:47:41.000Z,0
2019-04-20T05:48:53.238Z,0
2019-04-20T05:50:05.431Z,0
2019-04-20T05:51:17.631Z,0
2019-04-20T05:52:29.818Z,0
2019-04-20T05:53:42.021Z,0
2019-04-20T05:54:54.211Z,0
2019-04-20T05:56:06.042Z,0
2019-04-20T05:57:18.608Z,0
2019-04-20T05:58:30.802Z,0
2019-04-20T05:59:43.010Z,0
2019-04-20T06:00:55.196Z,0
2019-04-20T06:02:07.396Z,0
2019-04-20T06:03:19.580Z,0
2019-04-20T06:04:31.781Z,0
2019-04-20T06:05:43.977Z,0
2019-04-20T06:06:56.214Z,0
2019-04-20T06:08:08.358Z,0
2019-04-20T06:09:20.564Z,0
2019-04-20T06:10:32.761Z,0
2019-04-20T06:11:44.953Z,0
2019-04-20T06:12:57.145Z,0
2019-04-20T06:14:09.346Z,0
2019-04-20T06:15:21.534Z,5
2019-04-20T06:17:45.092Z,5
2019-04-20T06:18:58.124Z,5
2019-04-20T06:20:10.333Z,5
2019-04-20T06:21:22.512Z,5
2019-04-20T06:22:34.722Z,5
2019-04-20T06:23:46.911Z,5
2019-04-20T06:24:59.163Z,5
2019-04-20T06:26:11.470Z,5
2019-04-20T06:27:23.496Z,5
2019-04-20T06:28:35.711Z,5
2019-04-20T06:29:47.886Z,5
2019-04-20T06:31:00.083Z,5
2019-04-20T06:32:12.275Z,5
2019-04-20T06:33:24.476Z,5
2019-04-20T06:35:48.857Z,5
2019-04-20T06:37:01.054Z,5
2019-04-20T06:38:13.260Z,5
2019-04-20T06:39:25.450Z,5
2019-04-20T06:40:37.064Z,5
2019-04-20T06:41:50.047Z,5
2019-04-20T06:43:02.039Z,5
2019-04-20T06:44:14.235Z,5
2019-04-20T06:45:26.421Z,5
2019-04-20T06:46:38.616Z,5
2019-04-20T06:47:50.814Z,5
2019-04-20T06:49:03.008Z,5
2019-04-20T06:50:15.203Z,5
2019-04-20T06:51:27.388Z,5
2019-04-20T06:52:39.593Z,5
2019-04-20T06:53:51.888Z,5
2019-04-20T06:55:03.098Z,5
2019-04-20T06:56:16.186Z,5
2019-04-20T06:57:28.362Z,5
2019-04-20T06:59:52.751Z,5
2019-04-20T07:01:04.947Z,5
2019-04-20T07:02:17.150Z,5
2019-04-20T07:03:29.329Z,5
2019-04-20T07:04:41.525Z,5
2019-04-20T07:05:53.719Z,5
2019-04-20T07:07:05.915Z,5
2019-04-20T07:08:18.125Z,5
2019-04-20T07:09:30.302Z,5
2019-04-20T07:10:42.503Z,5
2019-04-20T07:11:54.685Z,5
2019-04-20T07:13:06.890Z,5
2019-04-20T07:14:19.079Z,5
2019-04-20T07:15:31.002Z,5
2019-04-20T07:16:43.472Z,5
2019-04-20T07:17:55.661Z,5
2019-04-20T07:19:07.851Z,5
2019-04-20T07:20:20.051Z,5
2019-04-20T07:21:32.023Z,5
2019-04-20T07:22:44.439Z,5
2019-04-20T07:23:56.627Z,5
2019-04-20T07:25:08.840Z,5
2019-04-20T07:26:21.024Z,5
2019-04-20T07:27:33.208Z,5
2019-04-20T07:28:45.040Z,5
2019-04-20T07:29:57.596Z,5
2019-04-20T07:31:09.786Z,5
2019-04-20T07:32:21.983Z,5
2019-04-20T07:33:34.178Z,5
2019-04-20T07:34:46.376Z,5
2019-04-20T07:35:58.563Z,5
2019-04-20T07:37:10.760Z,5
2019-04-20T07:38:22.960Z,5
2019-04-20T07:39:35.153Z,5
2019-04-20T07:40:47.344Z,5
2019-04-20T07:41:59.534Z,5
2019-04-20T07:43:11.734Z,5
2019-04-20T07:44:23.933Z,5
2019-04-20T07:45:36.000Z,5
2019-04-20T07:46:48.311Z,5
2019-04-20T07:48:00.507Z,5
2019-04-20T07:49:12.704Z,5
2019-04-20T07:50:24.897Z,5
2019-04-20T07:51:37.099Z,5
2019-04-20T07:52:49.027Z,5
2019-04-20T07:54:01.000Z,5
2019-04-20T07:55:13.673Z,5
2019-04-20T07:56:25.861Z,5
2019-04-20T07:57:38.418Z,5
2019-04-20T07:58:50.002Z,5
2019-04-20T08:00:02.444Z,5
2019-04-20T08:01:14.638Z,5
2019-04-20T08:02:26.083Z,5
2019-04-20T08:03:39.030Z,5
2019-04-20T08:04:51.220Z,5
2019-04-20T08:06:03.409Z,5
2019-04-20T08:07:15.609Z,5
2019-04-20T08:08:27.807Z,5
2019-04-20T08:09:39.991Z,5
2019-04-20T08:12:04.382Z,5
2019-04-20T08:13:16.582Z,5
2019-04-20T08:14:28.772Z,5
2019-04-20T08:15:40.981Z,5
2019-04-20T08:16:53.161Z,5
2019-04-20T08:18:05.353Z,5
2019-04-20T08:19:17.548Z,5
2019-04-20T08:20:29.740Z,5
2019-04-20T08:21:41.934Z,5
2019-04-20T08:22:54.122Z,5
2019-04-20T08:24:06.325Z,5
2019-04-20T08:25:18.519Z,5
2019-04-20T08:26:30.711Z,5
2019-04-20T08:27:42.921Z,5
2019-04-20T08:28:55.097Z,5
2019-04-20T08:30:07.029Z,5
2019-04-20T08:31:19.483Z,5
2019-04-20T08:32:31.677Z,5
2019-04-20T08:33:43.087Z,5
2019-04-20T08:34:56.068Z,5
2019-04-20T08:36:08.261Z,5
2019-04-20T08:37:20.534Z,5
2019-04-20T08:38:32.644Z,5
2019-04-20T08:39:44.844Z,5
2019-04-20T08:40:57.038Z,5
2019-04-20T08:42:09.234Z,5
2019-04-20T08:43:21.433Z,5
2019-04-20T08:44:33.627Z,5
2019-04-20T08:45:45.081Z,5
2019-04-20T08:46:58.008Z,5
2019-04-20T08:48:10.200Z,5
2019-04-20T08:49:22.392Z,5
2019-04-20T08:50:34.595Z,5
2019-04-20T08:51:46.077Z,5
2019-04-20T08:52:58.977Z,5
2019-04-20T08:54:11.162Z,5
2019-04-20T08:55:23.359Z,5
2019-04-20T08:56:35.563Z,5
2019-04-20T08:57:47.759Z,5
2019-04-20T08:58:59.941Z,5
2019-04-20T09:00:12.129Z,5
2019-04-20T09:01:24.330Z,5
2019-04-20T09:02:36.520Z,5
2019-04-20T09:03:48.716Z,5
2019-04-20T09:05:00.904Z,5
2019-04-20T09:06:13.107Z,5
2019-04-20T09:07:25.348Z,5
2019-04-20T09:08:37.489Z,5
2019-04-20T09:09:49.689Z,5
2019-04-20T09:12:14.085Z,5
2019-04-20T09:13:26.277Z,5
2019-04-20T09:14:38.460Z,5
2019-04-20T09:15:50.652Z,5
2019-04-20T09:17:02.841Z,5
2019-04-20T09:18:15.004Z,5
2019-04-20T09:19:27.229Z,5
2019-04-20T09:20:39.427Z,5
2019-04-20T09:21:51.630Z,5
2019-04-20T09:23:03.816Z,5
2019-04-20T09:24:16.010Z,5
2019-04-20T09:25:28.201Z,5
2019-04-20T09:26:40.439Z,5
2019-04-20T09:27:52.598Z,5
2019-04-20T09:29:04.793Z,5
2019-04-20T09:30:16.979Z,5
2019-04-20T09:31:29.172Z,5
2019-04-20T09:32:41.036Z,5
2019-04-20T09:33:53.561Z,5
2019-04-20T09:35:05.075Z,5
2019-04-20T09:36:17.946Z,5
2019-04-20T09:37:30.139Z,5
2019-04-20T09:38:42.337Z,5
2019-04-20T09:39:54.554Z,5
2019-04-20T09:41:06.726Z,5
2019-04-20T09:42:18.919Z,5
2019-04-20T09:43:31.110Z,5
2019-04-20T09:44:43.308Z,5
2019-04-20T09:45:55.501Z,5
2019-04-20T09:47:07.691Z,5
2019-04-20T09:48:19.892Z,5
2019-04-20T09:49:32.008Z,5
2019-04-20T09:50:44.275Z,5
2019-04-20T09:51:56.470Z,5
2019-04-20T09:54:20.885Z,5
2019-04-20T09:55:33.048Z,5
2019-04-20T09:56:45.236Z,11
2019-04-20T09:57:57.432Z,11
2019-04-20T09:59:09.627Z,11
2019-04-20T10:00:21.820Z,11
2019-04-20T10:01:34.002Z,11
2019-04-20T10:02:46.209Z,11
2019-04-20T10:03:58.407Z,11
2019-04-20T10:05:10.607Z,11
2019-04-20T10:06:22.080Z,11
2019-04-20T10:07:34.988Z,11
2019-04-20T10:08:47.183Z,11
2019-04-20T10:09:59.378Z,11
2019-04-20T10:11:11.563Z,11
2019-04-20T10:12:23.759Z,11
2019-04-20T10:13:35.960Z,11
2019-04-20T10:14:48.268Z,11
2019-04-20T10:16:00.369Z,11
2019-04-20T10:17:12.537Z,11
2019-04-20T10:18:24.732Z,11
2019-04-20T10:19:36.915Z,11
2019-04-20T10:20:49.119Z,11
2019-04-20T10:22:01.304Z,11
2019-04-20T10:23:13.500Z,11
2019-04-20T10:24:25.691Z,11
2019-04-20T10:25:37.898Z,11
2019-04-20T10:26:50.086Z,11
2019-04-20T10:28:02.000Z,11
2019-04-20T10:29:14.473Z,11
2019-04-20T10:30:26.663Z,11
2019-04-20T10:31:38.095Z,11
2019-04-20T10:32:51.059Z,11
2019-04-20T10:34:03.246Z,11
2019-04-20T10:35:15.440Z,11
2019-04-20T10:36:27.636Z,11
2019-04-20T10:37:39.828Z,11
2019-04-20T10:38:52.025Z,11
2019-04-20T10:40:04.219Z,11
2019-04-20T10:41:16.401Z,11
2019-04-20T10:42:28.689Z,11
2019-04-20T10:43:40.797Z,11
2019-04-20T10:44:52.990Z,11
2019-04-20T10:46:05.185Z,5
2019-04-20T10:47:17.377Z,11
2019-04-20T10:48:29.572Z,5
2019-04-20T10:49:41.762Z,11
2019-04-20T10:50:53.950Z,11
2019-04-20T10:52:06.146Z,11
2019-04-20T10:53:18.341Z,11
2019-04-20T10:54:30.544Z,11
2019-04-20T10:55:42.737Z,11
2019-04-20T10:56:54.927Z,11
2019-04-20T10:58:07.118Z,11
2019-04-20T10:59:19.310Z,11
2019-04-20T11:00:31.515Z,11
2019-04-20T11:01:43.696Z,11
2019-04-20T11:02:55.891Z,11
2019-04-20T11:04:08.085Z,11
2019-04-20T11:05:20.286Z,11
2019-04-20T11:06:32.473Z,11
2019-04-20T11:07:44.674Z,11
2019-04-20T11:08:56.859Z,11
2019-04-20T11:10:09.059Z,11
2019-04-20T11:11:21.248Z,11
2019-04-20T11:12:33.446Z,11
2019-04-20T11:13:45.632Z,11
2019-04-20T11:14:57.990Z,11
2019-04-20T11:16:10.019Z,11
2019-04-20T11:17:22.218Z,11
2019-04-20T11:18:34.000Z,11
2019-04-20T11:19:46.601Z,11
2019-04-20T11:20:58.805Z,11
2019-04-20T11:22:10.099Z,11
2019-04-20T11:23:23.183Z,11
2019-04-20T11:24:35.379Z,11
2019-04-20T11:25:47.569Z,11
2019-04-20T11:26:59.766Z,11
2019-04-20T11:28:11.959Z,11
2019-04-20T11:29:24.151Z,11
2019-04-20T11:30:36.345Z,11
2019-04-20T11:31:48.538Z,11
2019-04-20T11:33:00.072Z,11
2019-04-20T11:34:12.928Z,11
2019-04-20T11:36:37.305Z,11
2019-04-20T11:37:49.501Z,11
2019-04-20T11:39:01.694Z,11
2019-04-20T11:40:13.887Z,11
2019-04-20T11:41:26.084Z,11
2019-04-20T11:42:38.295Z,11
2019-04-20T11:43:50.527Z,11
2019-04-20T11:45:02.665Z,11
2019-04-20T11:46:14.857Z,11
2019-04-20T11:47:27.050Z,11
2019-04-20T11:48:39.241Z,11
2019-04-20T11:49:51.444Z,11
2019-04-20T11:51:03.640Z,11
2019-04-20T11:52:15.846Z,11
2019-04-20T11:53:28.018Z,11
2019-04-20T11:54:40.267Z,11
2019-04-20T11:55:52.413Z,11
2019-04-20T11:57:04.612Z,11
2019-04-20T11:58:16.790Z,11
2019-04-20T11:59:28.993Z,11
2019-04-20T12:00:41.187Z,11
2019-04-20T12:01:53.381Z,11
2019-04-20T12:03:05.570Z,11
2019-04-20T12:04:17.000Z,11
2019-04-20T12:05:29.958Z,11
2019-04-20T12:06:42.151Z,11
2019-04-20T12:07:54.467Z,11
2019-04-20T12:09:06.536Z,11
2019-04-20T12:10:18.732Z,11
2019-04-20T12:11:30.925Z,11
2019-04-20T12:12:43.119Z,11
2019-04-20T12:13:55.304Z,11
2019-04-20T12:15:07.501Z,11
2019-04-20T12:16:19.700Z,11
2019-04-20T12:17:31.892Z,11
2019-04-20T12:18:44.077Z,11
2019-04-20T12:19:56.279Z,11
2019-04-20T12:21:08.470Z,11
2019-04-20T12:22:20.657Z,11
2019-04-20T12:24:45.054Z,11
2019-04-20T12:25:57.002Z,11
2019-04-20T12:27:09.043Z,11
2019-04-20T12:28:21.697Z,11
2019-04-20T12:29:33.832Z,11
2019-04-20T12:30:46.034Z,11
2019-04-20T12:31:58.214Z,11
2019-04-20T12:33:10.408Z,11
2019-04-20T12:34:22.059Z,11
2019-04-20T12:37:59.177Z,16
2019-04-20T12:39:11.369Z,16
2019-04-20T12:40:23.582Z,16
2019-04-20T12:41:35.761Z,16
2019-04-20T12:42:47.957Z,16
2019-04-20T12:44:00.185Z,16
2019-04-20T12:45:12.351Z,16
2019-04-20T12:46:24.534Z,16
2019-04-20T12:48:48.929Z,16
2019-04-20T12:50:01.239Z,16
2019-04-20T12:51:13.308Z,16
2019-04-20T12:52:25.507Z,16
2019-04-20T12:53:37.694Z,16
2019-04-20T12:54:49.893Z,16
2019-04-20T12:56:02.083Z,16
2019-04-20T12:57:14.281Z,16
2019-04-20T12:58:26.471Z,16
2019-04-20T13:00:50.859Z,16
2019-04-20T13:02:03.048Z,16
2019-04-20T13:03:15.250Z,16
2019-04-20T13:04:27.446Z,16
2019-04-20T13:05:39.641Z,16
2019-04-20T13:06:51.828Z,16
2019-04-20T13:08:04.018Z,16
2019-04-20T13:09:16.214Z,16
2019-04-20T13:10:28.411Z,22
2019-04-20T13:12:52.797Z,22
2019-04-20T13:14:04.988Z,22
2019-04-20T13:15:17.184Z,22
2019-04-20T13:17:41.566Z,22
2019-04-20T13:18:53.776Z,22
2019-04-20T13:20:05.952Z,22
2019-04-20T13:21:18.149Z,22
2019-04-20T13:22:30.352Z,22
2019-04-20T13:23:42.571Z,22
2019-04-20T13:24:54.073Z,22
2019-04-20T13:26:06.977Z,22
2019-04-20T13:27:19.124Z,22
2019-04-20T13:28:31.374Z,28
2019-04-20T13:29:43.501Z,28
2019-04-20T13:30:55.700Z,28
2019-04-20T13:32:07.887Z,28
2019-04-20T13:33:20.088Z,28
2019-04-20T13:34:32.279Z,28
2019-04-20T13:35:44.469Z,28
2019-04-20T13:36:56.674Z,28
2019-04-20T13:38:08.865Z,28
2019-04-20T13:39:21.056Z,28
2019-04-20T13:40:33.249Z,28
2019-04-20T13:41:45.441Z,28
2019-04-20T13:42:57.637Z,33
2019-04-20T13:44:09.082Z,33
2019-04-20T13:45:21.000Z,33
2019-04-20T13:47:46.410Z,33
2019-04-20T13:48:58.602Z,33
2019-04-20T13:50:10.080Z,33
2019-04-20T13:51:22.099Z,33
2019-04-20T13:52:35.183Z,33
2019-04-20T13:53:47.371Z,39
2019-04-20T13:54:59.567Z,39
2019-04-20T13:56:11.085Z,45
2019-04-20T13:57:23.949Z,45
2019-04-20T13:58:36.144Z,50
2019-04-20T13:59:48.341Z,50
2019-04-20T14:01:00.530Z,50
2019-04-20T14:02:12.729Z,56
2019-04-20T14:03:24.925Z,67
2019-04-20T14:04:37.011Z,73
2019-04-20T14:05:49.307Z,78
2019-04-20T14:07:01.500Z,84
2019-04-20T14:08:13.694Z,551
2019-04-20T14:09:25.886Z,1141
2019-04-20T14:10:38.079Z,1158
2019-04-20T14:11:50.284Z,1141
2019-04-20T14:13:02.474Z,961
2019-04-20T14:14:14.759Z,928
2019-04-20T14:15:26.086Z,933
2019-04-20T14:16:39.049Z,995
2019-04-20T14:17:51.247Z,1125
2019-04-20T14:19:03.432Z,1220
2019-04-20T14:20:15.628Z,1012
2019-04-20T14:21:27.824Z,258
2019-04-20T14:22:40.014Z,95
2019-04-20T14:23:52.223Z,90
2019-04-20T14:25:04.408Z,84
2019-04-20T14:26:16.616Z,78
2019-04-20T14:27:28.789Z,78
2019-04-20T14:28:40.986Z,78
2019-04-20T14:29:53.175Z,73
2019-04-20T14:31:05.036Z,67
2019-04-20T14:32:17.589Z,67
2019-04-20T14:33:29.808Z,61
2019-04-20T14:34:41.952Z,61
2019-04-20T14:37:06.350Z,56
2019-04-20T14:38:18.064Z,50
2019-04-20T14:39:30.725Z,50
2019-04-20T14:40:42.925Z,50
2019-04-20T14:41:55.122Z,50
2019-04-20T14:43:07.309Z,50
2019-04-20T14:44:19.050Z,50
2019-04-20T14:45:31.703Z,50
2019-04-20T14:46:43.888Z,50
2019-04-20T14:47:56.099Z,50
2019-04-20T14:49:08.272Z,50
2019-04-20T14:52:44.861Z,61
2019-04-20T14:53:57.050Z,67
2019-04-20T14:55:09.245Z,67
2019-04-20T14:56:21.439Z,73
2019-04-20T14:57:33.633Z,78
2019-04-20T14:58:45.826Z,84
2019-04-20T14:59:58.016Z,90
2019-04-20T15:01:10.000Z,95
2019-04-20T15:02:22.428Z,101
2019-04-20T15:03:34.060Z,106
2019-04-20T15:04:46.799Z,118
2019-04-20T15:05:58.990Z,129
2019-04-20T15:07:11.000Z,135
2019-04-20T15:08:23.380Z,146
2019-04-20T15:09:35.568Z,151
2019-04-20T15:10:47.076Z,163
2019-04-20T15:11:59.096Z,174
2019-04-20T15:13:12.160Z,185
2019-04-20T15:14:24.594Z,191
2019-04-20T15:15:36.548Z,191
2019-04-20T15:16:48.731Z,196
2019-04-20T15:18:00.919Z,202
2019-04-20T15:19:13.118Z,208
2019-04-20T15:20:25.306Z,213
2019-04-20T15:21:37.521Z,219
2019-04-20T15:22:49.696Z,219
2019-04-20T15:24:01.894Z,225
2019-04-20T15:25:14.082Z,225
2019-04-20T15:26:26.278Z,230
2019-04-20T15:27:38.473Z,236
2019-04-20T15:28:50.798Z,236
2019-04-20T15:30:02.861Z,236
2019-04-20T15:31:15.056Z,236
2019-04-20T15:32:27.246Z,236
2019-04-20T15:33:39.444Z,236
2019-04-20T15:34:51.633Z,236
2019-04-20T15:36:03.830Z,225
2019-04-20T15:37:16.023Z,219
2019-04-20T15:38:28.216Z,213
2019-04-20T15:39:40.412Z,202
2019-04-20T15:40:52.608Z,191
2019-04-20T15:42:04.094Z,180
2019-04-20T15:43:16.993Z,168
2019-04-20T15:44:29.190Z,163
2019-04-20T15:45:41.380Z,151
2019-04-20T15:48:05.758Z,135
2019-04-20T15:49:17.957Z,123
2019-04-20T15:50:30.158Z,118
2019-04-20T15:51:42.353Z,118
2019-04-20T15:52:54.054Z,118
2019-04-20T15:54:06.738Z,112
2019-04-20T15:55:18.929Z,106
2019-04-20T15:56:31.141Z,101
2019-04-20T15:57:43.315Z,95
2019-04-20T15:58:55.606Z,90
2019-04-20T16:00:07.704Z,90
2019-04-20T16:01:19.900Z,90
2019-04-20T16:02:32.091Z,84
2019-04-20T16:03:44.290Z,84
2019-04-20T16:04:56.475Z,84
2019-04-20T16:06:08.676Z,84
2019-04-20T16:07:20.859Z,84
2019-04-20T16:08:33.052Z,84
2019-04-20T16:09:45.255Z,84
2019-04-20T16:10:57.448Z,90
2019-04-20T16:12:09.636Z,90
2019-04-20T16:14:34.096Z,90
2019-04-20T16:15:46.022Z,90
2019-04-20T16:16:58.418Z,90
2019-04-20T16:18:10.610Z,95
2019-04-20T16:19:22.805Z,95
2019-04-20T16:20:34.996Z,101
2019-04-20T16:21:47.188Z,101
2019-04-20T16:22:59.038Z,106
2019-04-20T16:25:23.779Z,106
2019-04-20T16:27:48.016Z,106
2019-04-20T16:29:00.365Z,106
2019-04-20T16:31:24.075Z,106
2019-04-20T16:32:36.941Z,106
2019-04-20T16:33:49.142Z,106
2019-04-20T16:35:01.331Z,106
2019-04-20T16:36:13.529Z,106
2019-04-20T16:37:25.717Z,106
2019-04-20T16:38:37.912Z,106
2019-04-20T16:39:50.109Z,106
2019-04-20T16:41:02.309Z,106
2019-04-20T16:42:14.497Z,106
2019-04-20T16:43:26.704Z,106
2019-04-20T16:44:38.886Z,106
2019-04-20T16:45:51.088Z,101
2019-04-20T16:47:03.279Z,101
2019-04-20T16:48:15.478Z,101
2019-04-20T16:49:27.676Z,95
2019-04-20T16:50:39.873Z,90
2019-04-20T16:51:52.082Z,90
2019-04-20T16:53:04.292Z,84
2019-04-20T16:54:16.448Z,78
2019-04-20T16:55:28.717Z,73
2019-04-20T16:56:40.844Z,67
2019-04-20T16:57:53.006Z,67
2019-04-20T16:59:05.235Z,61
2019-04-20T17:00:17.430Z,56
2019-04-20T17:01:29.623Z,56
2019-04-20T17:02:41.821Z,56
2019-04-20T17:03:54.015Z,50
2019-04-20T17:05:06.203Z,45
2019-04-20T17:06:18.580Z,45
2019-04-20T17:07:30.602Z,39
2019-04-20T17:08:42.794Z,39
2019-04-20T17:09:54.987Z,33
2019-04-20T17:11:07.184Z,33
2019-04-20T17:12:19.380Z,28
2019-04-20T17:13:31.575Z,28
2019-04-20T17:14:43.772Z,28
2019-04-20T17:15:55.961Z,28
2019-04-20T17:17:08.275Z,28
2019-04-20T17:18:20.358Z,28
2019-04-20T17:19:32.549Z,28
2019-04-20T17:20:44.744Z,28
2019-04-20T17:21:57.151Z,22
2019-04-20T17:23:09.139Z,22
2019-04-20T17:24:21.333Z,22
2019-04-20T17:25:33.530Z,22
2019-04-20T17:26:45.715Z,22
2019-04-20T17:27:57.915Z,22
2019-04-20T17:29:10.108Z,16
2019-04-20T17:30:22.301Z,16
2019-04-20T17:31:34.536Z,16
2019-04-20T17:32:46.698Z,16
2019-04-20T17:33:58.089Z,16
2019-04-20T17:36:23.283Z,11
2019-04-20T17:37:35.482Z,11
2019-04-20T17:38:47.669Z,11
2019-04-20T17:39:59.861Z,11
2019-04-20T17:41:12.056Z,11
2019-04-20T17:42:24.261Z,11
2019-04-20T17:43:36.451Z,11
2019-04-20T17:44:48.647Z,5
2019-04-20T17:46:00.850Z,5
2019-04-20T17:47:13.037Z,5
2019-04-20T17:49:37.042Z,5
2019-04-20T17:50:49.619Z,5
2019-04-20T17:52:01.818Z,5
2019-04-20T17:53:14.001Z,5
2019-04-20T17:54:26.205Z,5
2019-04-20T17:55:38.421Z,0
2019-04-20T17:56:50.060Z,0
2019-04-20T17:58:02.839Z,0
2019-04-20T17:59:14.991Z,0
2019-04-20T18:00:27.186Z,0
2019-04-20T18:01:39.381Z,0
2019-04-20T18:02:51.575Z,0
2019-04-20T18:04:03.766Z,0
2019-04-20T18:05:15.000Z,0
2019-04-20T18:06:28.015Z,0
2019-04-20T18:07:40.363Z,0
2019-04-20T18:08:52.557Z,0
2019-04-20T18:10:04.749Z,0
2019-04-20T18:11:16.941Z,0
2019-04-20T18:12:29.154Z,0
2019-04-20T18:13:41.330Z,0
2019-04-20T18:14:53.522Z,0
2019-04-20T18:16:05.727Z,0